Terminal Aerodrome Forecast
Issued by NWS

Home | Current Version | Previous Version | Text Only | Print | Product List | Glossary On
Versions: 1 2 3 4 5 6 7 8 9 10 11 12 13 14 15 16 17 18 19
760
FTUS46 KHNX 172320
TAFFAT
TAF
KFAT 172320Z 1800/1824 VRB04KT 3SM HZ SCT200
     FM180400 VRB04KT 2SM BR BKN005
      TEMPO 1804/1807 1/2SM FG OVC003
     FM180700 VRB03KT 1/4SM FG OVC002
     FM181700 VRB03KT 1SM BR OVC005
     FM181800 VRB04KT 2SM HZ SCT010 BKN100 OVC250=

USA.gov is the U.S. government's official web portal to all federal, state and local government web resources and services.